createdAt,value
2022-12-18T00:04:20.222Z,101656.56
2022-12-18T00:09:21.612Z,101657.66
2022-12-18T00:14:25.898Z,101652.84
2022-12-18T00:19:27.016Z,101668.41
2022-12-18T00:24:28.226Z,101621.75
2022-12-18T00:29:29.473Z,101683.13
2022-12-18T00:34:31.068Z,101667.75
2022-12-18T00:39:32.257Z,101671.13
2022-12-18T00:44:33.454Z,101669.84
2022-12-18T00:49:34.618Z,101664.88
2022-12-18T00:54:35.873Z,101662.78
2022-12-18T00:59:37.086Z,101649.50
2022-12-18T01:04:38.267Z,101666.19
2022-12-18T01:09:40.549Z,101653.97
2022-12-18T01:14:41.733Z,101655.75
2022-12-18T01:19:42.899Z,101648.06
2022-12-18T01:24:44.047Z,101658.50
2022-12-18T01:29:45.256Z,101662.63
2022-12-18T01:34:46.478Z,101651.88
2022-12-18T01:39:47.714Z,101654.91
2022-12-18T01:44:48.899Z,101657.13
2022-12-18T01:49:50.138Z,101665.19
2022-12-18T01:54:51.271Z,101660.41
2022-12-18T01:59:52.450Z,101647.91
2022-12-18T02:04:53.568Z,101652.38
2022-12-18T02:09:54.745Z,101664.22
2022-12-18T02:14:55.881Z,101665.16
2022-12-18T02:19:57.146Z,101657.19
2022-12-18T02:24:58.277Z,101649.50
2022-12-18T02:29:59.443Z,101650.81
2022-12-18T02:35:00.621Z,101660.06
2022-12-18T02:40:01.841Z,101644.84
2022-12-18T02:45:03.052Z,101637.00
2022-12-18T02:50:04.238Z,101627.38
2022-12-18T02:55:05.385Z,101623.09
2022-12-18T03:00:06.904Z,101638.78
2022-12-18T03:05:08.187Z,101634.28
2022-12-18T03:10:09.398Z,101628.81
2022-12-18T03:15:15.987Z,101629.63
2022-12-18T03:20:18.790Z,101623.56
2022-12-18T03:25:19.931Z,101610.44
2022-12-18T03:30:21.153Z,101606.25
2022-12-18T03:35:22.275Z,101603.06
2022-12-18T03:40:23.507Z,101600.19
2022-12-18T03:45:24.659Z,101600.66
2022-12-18T03:50:25.854Z,101608.19
2022-12-18T03:55:27.029Z,101605.31
2022-12-18T04:00:28.196Z,101588.78
2022-12-18T04:05:29.334Z,101590.56
2022-12-18T04:10:30.540Z,101591.19
2022-12-18T04:15:32.072Z,101587.38
2022-12-18T04:20:33.285Z,101582.56
2022-12-18T04:25:34.665Z,101581.09
2022-12-18T04:30:35.806Z,101587.84
2022-12-18T04:35:37.047Z,101591.53
2022-12-18T04:40:38.254Z,101585.75
2022-12-18T04:45:39.415Z,101595.53
2022-12-18T04:50:41.962Z,101592.50
2022-12-18T04:55:43.103Z,101584.16
2022-12-18T05:00:44.302Z,101579.38
2022-12-18T05:05:45.445Z,101576.47
2022-12-18T05:10:46.942Z,101582.84
2022-12-18T05:15:48.188Z,101573.56
2022-12-18T05:20:49.377Z,101565.72
2022-12-18T05:25:50.503Z,101568.28
2022-12-18T05:30:51.795Z,101562.22
2022-12-18T05:35:53.052Z,101572.94
2022-12-18T05:40:54.186Z,101566.53
2022-12-18T05:45:55.412Z,101574.53
2022-12-18T05:50:56.622Z,101581.59
2022-12-18T05:55:57.826Z,101591.19
2022-12-18T06:00:58.997Z,101600.16
2022-12-18T06:06:00.206Z,101610.41
2022-12-18T06:11:01.593Z,101617.44
2022-12-18T06:16:02.791Z,101623.19
2022-12-18T06:21:04.047Z,101632.47
2022-12-18T06:26:05.301Z,101641.41
2022-12-18T06:31:06.493Z,101646.53
2022-12-18T06:36:08.200Z,101637.75
2022-12-18T06:41:09.411Z,101636.63
2022-12-18T06:46:10.692Z,101615.78
2022-12-18T06:51:11.957Z,101609.72
2022-12-18T06:56:13.204Z,101609.25
2022-12-18T07:01:14.804Z,101613.91
2022-12-18T07:06:16.330Z,101615.16
2022-12-18T07:11:17.495Z,101609.84
2022-12-18T07:16:24.753Z,101610.00
2022-12-18T07:21:27.019Z,101617.03
2022-12-18T07:26:28.283Z,101612.56
2022-12-18T07:31:29.554Z,101614.81
2022-12-18T07:36:30.920Z,101604.56
2022-12-18T07:41:32.117Z,101602.34
2022-12-18T07:46:33.273Z,101593.41
2022-12-18T07:51:34.466Z,101586.66
2022-12-18T07:56:35.606Z,101589.38
2022-12-18T08:01:36.929Z,101597.53
2022-12-18T08:06:38.187Z,101599.34
2022-12-18T08:11:39.454Z,101588.94
2022-12-18T08:16:40.789Z,101580.63
2022-12-18T08:21:42.050Z,101564.31
2022-12-18T08:26:51.795Z,101560.13
2022-12-18T08:32:02.186Z,101549.97
2022-12-18T08:37:03.395Z,101519.31
2022-12-18T08:42:39.994Z,101524.53
2022-12-18T08:47:41.216Z,101523.63
2022-12-18T08:52:42.412Z,101531.22
2022-12-18T08:57:43.642Z,101525.28
2022-12-18T09:02:45.658Z,101530.91
2022-12-18T09:07:46.878Z,101534.69
2022-12-18T09:12:48.246Z,101484.41
2022-12-18T09:17:50.861Z,101514.72
2022-12-18T09:22:52.062Z,101507.72
2022-12-18T09:27:53.214Z,101520.03
2022-12-18T09:32:54.549Z,101510.00
2022-12-18T09:37:55.734Z,101506.78
2022-12-18T09:42:57.513Z,101499.53
2022-12-18T09:47:58.661Z,101495.69
2022-12-18T09:52:59.866Z,101485.06
2022-12-18T09:58:01.081Z,101476.47
2022-12-18T10:03:02.517Z,101483.16
2022-12-18T10:08:03.938Z,101483.00
2022-12-18T10:13:05.509Z,101458.38
2022-12-18T10:18:06.711Z,101456.28
2022-12-18T10:23:07.868Z,101454.03
2022-12-18T10:28:09.063Z,101436.63
2022-12-18T10:33:10.218Z,101435.31
2022-12-18T10:38:11.422Z,101440.34
2022-12-18T10:43:12.659Z,101437.59
2022-12-18T10:48:13.822Z,101420.53
2022-12-18T10:53:14.993Z,101431.09
2022-12-18T10:58:16.140Z,101413.38
2022-12-18T11:03:17.415Z,101403.84
2022-12-18T11:08:18.719Z,101403.88
2022-12-18T11:13:19.996Z,101410.25
2022-12-18T11:18:21.210Z,101400.31
2022-12-18T11:23:23.930Z,101407.28
2022-12-18T11:28:25.125Z,101408.66
2022-12-18T11:33:26.325Z,101409.44
2022-12-18T11:38:27.463Z,101387.78
2022-12-18T11:43:28.710Z,101384.00
2022-12-18T11:48:29.948Z,101374.84
2022-12-18T11:53:31.339Z,101359.91
2022-12-18T11:58:32.483Z,101358.53
2022-12-18T12:03:33.772Z,101348.38
2022-12-18T12:08:35.019Z,101338.44
2022-12-18T12:13:36.226Z,101361.09
2022-12-18T12:18:37.414Z,101358.13
2022-12-18T12:23:38.584Z,101360.50
2022-12-18T12:28:40.120Z,101354.72
2022-12-18T12:33:41.925Z,101347.34
2022-12-18T12:38:49.839Z,101332.25
2022-12-18T12:43:53.522Z,101331.25
2022-12-18T12:48:54.894Z,101331.63
2022-12-18T12:53:56.136Z,101324.63
2022-12-18T12:58:57.822Z,101329.75
2022-12-18T13:03:59.539Z,101302.75
2022-12-18T13:09:00.877Z,101319.84
2022-12-18T13:14:02.336Z,101330.19
2022-12-18T13:19:03.756Z,101335.94
2022-12-18T13:24:05.033Z,101329.75
2022-12-18T13:29:07.147Z,101328.78
2022-12-18T13:34:25.816Z,101325.41
2022-12-18T13:39:34.231Z,101312.31
2022-12-18T13:44:40.332Z,101308.31
2022-12-18T13:49:42.199Z,101314.06
2022-12-18T13:54:43.350Z,101309.88
2022-12-18T13:59:44.556Z,101292.16
2022-12-18T14:04:45.738Z,101291.97
2022-12-18T14:09:49.792Z,101294.31
2022-12-18T14:14:53.520Z,101283.97
2022-12-18T14:19:56.579Z,101278.41
2022-12-18T14:24:57.769Z,101267.28
2022-12-18T14:29:59.139Z,101266.25
2022-12-18T14:35:00.368Z,101255.91
2022-12-18T14:40:08.729Z,101248.94
2022-12-18T14:45:14.331Z,101248.53
2022-12-18T14:50:15.950Z,101235.84
2022-12-18T14:55:17.156Z,101234.59
2022-12-18T15:00:18.563Z,101247.09
2022-12-18T15:05:19.751Z,101239.91
2022-12-18T15:10:21.236Z,101226.63
2022-12-18T15:15:22.373Z,101221.66
2022-12-18T15:20:23.519Z,101220.81
2022-12-18T15:25:24.879Z,101217.44
2022-12-18T15:30:26.263Z,101219.59
2022-12-18T15:35:27.471Z,101216.19
2022-12-18T15:40:28.651Z,101220.75
2022-12-18T15:45:29.893Z,101225.91
2022-12-18T15:50:31.062Z,101222.91
2022-12-18T15:55:51.005Z,101218.97
2022-12-18T16:00:52.160Z,101210.97
2022-12-18T16:05:53.370Z,101209.56
2022-12-18T16:10:55.840Z,101208.16
2022-12-18T16:15:57.164Z,101204.78
2022-12-18T16:20:58.450Z,101217.88
2022-12-18T16:25:59.724Z,101214.88
2022-12-18T16:31:00.927Z,101197.03
2022-12-18T16:36:02.181Z,101214.88
2022-12-18T16:41:21.955Z,101211.31
2022-12-18T16:46:23.245Z,101204.56
2022-12-18T16:51:24.434Z,101208.75
2022-12-18T16:56:25.599Z,101207.75
2022-12-18T17:01:26.817Z,101195.88
2022-12-18T17:06:28.217Z,101201.03
2022-12-18T17:11:29.414Z,101194.25
2022-12-18T17:16:30.643Z,101200.22
2022-12-18T17:21:33.074Z,101200.41
2022-12-18T17:26:34.258Z,101193.66
2022-12-18T17:31:35.559Z,101192.88
2022-12-18T17:36:36.839Z,101202.56
2022-12-18T17:41:37.967Z,101185.53
2022-12-18T17:46:39.689Z,101190.06
2022-12-18T17:51:42.819Z,101165.66
2022-12-18T17:56:44.102Z,101185.66
2022-12-18T18:01:46.100Z,101182.31
2022-12-18T18:06:47.450Z,101204.06
2022-12-18T18:12:07.390Z,101205.84
2022-12-18T18:17:08.817Z,101209.59
2022-12-18T18:22:10.325Z,101195.56
2022-12-18T18:27:12.128Z,101192.16
2022-12-18T18:32:13.568Z,101210.19
2022-12-18T18:37:14.817Z,101228.03
2022-12-18T18:42:16.084Z,101229.81
2022-12-18T18:47:17.425Z,101224.84
2022-12-18T18:52:18.647Z,101232.59
2022-12-18T18:57:21.624Z,101234.00
2022-12-18T19:02:24.315Z,101222.09
2022-12-18T19:07:30.210Z,101200.53
2022-12-18T19:12:51.276Z,101194.94
2022-12-18T19:17:52.454Z,101185.63
2022-12-18T19:22:55.523Z,101178.69
2022-12-18T19:27:57.251Z,101180.69
2022-12-18T19:33:05.484Z,101182.91
2022-12-18T19:38:15.958Z,101197.81
2022-12-18T19:43:17.092Z,101192.25
2022-12-18T19:48:18.292Z,101191.09
2022-12-18T19:53:19.460Z,101174.44
2022-12-18T19:58:20.661Z,101168.13
2022-12-18T20:03:30.574Z,101172.72
2022-12-18T20:08:33.620Z,101188.41
2022-12-18T20:13:34.846Z,101179.28
2022-12-18T20:18:36.093Z,101187.63
2022-12-18T20:23:37.525Z,101198.16
2022-12-18T20:28:39.288Z,101183.13
2022-12-18T20:33:42.598Z,101180.16
2022-12-18T20:38:44.290Z,101176.22
2022-12-18T20:43:46.575Z,101171.84
2022-12-18T20:48:48.046Z,101177.41
2022-12-18T20:53:49.188Z,101190.72
2022-12-18T20:58:50.463Z,101206.41
2022-12-18T21:03:55.787Z,101203.25
2022-12-18T21:08:56.919Z,101204.66
2022-12-18T21:13:58.164Z,101199.31
2022-12-18T21:18:59.384Z,101194.94
2022-12-18T21:24:00.884Z,101181.88
2022-12-18T21:29:02.134Z,101183.06
2022-12-18T21:34:03.421Z,101177.31
2022-12-18T21:39:04.615Z,101188.25
2022-12-18T21:44:05.957Z,101179.53
2022-12-18T21:49:07.147Z,101166.25
2022-12-18T21:54:08.325Z,101159.28
2022-12-18T21:59:09.527Z,101166.84
2022-12-18T22:04:10.836Z,101151.56
2022-12-18T22:09:12.090Z,101145.41
2022-12-18T22:14:14.722Z,101139.84
2022-12-18T22:19:15.909Z,101129.34
2022-12-18T22:24:17.247Z,101112.69
2022-12-18T22:29:37.229Z,101102.19
2022-12-18T22:34:39.251Z,101097.03
2022-12-18T22:39:40.473Z,101094.22
2022-12-18T22:44:42.011Z,101088.66
2022-12-18T22:49:43.306Z,101081.53
2022-12-18T22:54:44.591Z,101076.16
2022-12-18T22:59:45.752Z,101081.13
2022-12-18T23:04:47.473Z,101079.16
2022-12-18T23:09:49.343Z,101067.63
2022-12-18T23:14:51.914Z,101069.03
2022-12-18T23:19:53.103Z,101053.75
2022-12-18T23:24:54.389Z,101042.81
2022-12-18T23:29:55.556Z,101023.38
2022-12-18T23:34:59.710Z,101033.09
2022-12-18T23:40:00.884Z,101012.03
2022-12-18T23:45:04.521Z,101009.25
2022-12-18T23:50:13.013Z,101005.69
2022-12-18T23:55:14.375Z,101009.03
